Time;durP1;ratioP1;P1;durP2;ratioP2;P2;SDS_P1;SDS_P2;PMS_P1;PMS_P2;Temp;Humidity;BMP_temperature;BMP_pressure;BME280_temperature;BME280_humidity;BME280_pressure;Samples;Min_cycle;Max_cycle;Signal;HPM_P1;HPM_P2
2022/08/18 00:01:30;;;;;;;19.00;16.80;;;;;;;21.06;72.57;99513.15;213483;1277;140771;-68
2022/08/18 00:06:35;;;;;;;19.60;15.40;;;;;;;20.96;72.47;99516.30;214175;1277;142959;-67
2022/08/18 00:11:42;;;;;;;19.90;17.70;;;;;;;20.89;72.74;99520.64;214602;1277;142130;-67
2022/08/18 00:16:46;;;;;;;20.70;18.60;;;;;;;20.84;72.77;99530.89;212880;1277;140751;-67
2022/08/18 00:21:52;;;;;;;19.10;17.30;;;;;;;20.66;72.63;99530.34;213874;1277;141160;-65
2022/08/18 00:26:56;;;;;;;20.20;18.00;;;;;;;20.35;72.61;99527.67;214196;1277;141007;-65
2022/08/18 00:32:12;;;;;;;23.90;18.20;;;;;;;20.23;73.18;99528.58;214835;1277;141122;-65
2022/08/18 00:37:16;;;;;;;22.70;16.20;;;;;;;20.15;73.63;99535.67;214823;1277;141176;-68
2022/08/18 00:42:25;;;;;;;15.80;14.50;;;;;;;20.19;73.83;99538.56;213359;1277;140941;-66
2022/08/18 00:47:33;;;;;;;17.60;15.80;;;;;;;20.24;73.99;99530.75;213951;1277;140828;-68
2022/08/18 00:52:52;;;;;;;18.20;16.60;;;;;;;20.25;73.82;99529.55;214397;1277;141905;-65
2022/08/18 00:58:06;;;;;;;19.80;16.80;;;;;;;20.09;73.71;99530.83;215037;1277;140470;-66
2022/08/18 01:03:15;;;;;;;19.40;16.80;;;;;;;20.03;74.38;99528.78;215117;1277;142828;-66
2022/08/18 01:08:27;;;;;;;;;;;;;;;20.11;74.66;99529.74;214330;1277;227552;-67
2022/08/18 01:13:32;;;;;;;19.80;15.80;;;;;;;20.15;74.67;99533.61;216162;1277;127503;-67
2022/08/18 01:24:03;;;;;;;15.70;14.10;;;;;;;20.19;74.46;99532.42;215516;1277;141699;-67
2022/08/18 01:29:13;;;;;;;16.80;15.20;;;;;;;20.13;74.27;99533.27;213101;1277;140726;-66
2022/08/18 01:34:24;;;;;;;17.30;15.50;;;;;;;20.06;74.20;99540.02;213154;1277;142111;-68
2022/08/18 01:39:28;;;;;;;15.70;14.10;;;;;;;19.90;73.88;99535.58;214086;1277;141221;-66
2022/08/18 01:44:52;;;;;;;18.60;16.00;;;;;;;19.77;74.15;99524.96;214307;1277;141964;-65
2022/08/18 01:49:58;;;;;;;21.50;17.20;;;;;;;19.70;74.25;99525.64;212153;1280;1720977;-65
2022/08/18 01:55:03;;;;;;;16.80;15.30;;;;;;;19.60;74.36;99522.05;213944;1277;140925;-65
2022/08/18 02:00:13;;;;;;;15.50;14.10;;;;;;;19.46;74.65;99523.09;213387;1277;140187;-65
2022/08/18 02:05:26;;;;;;;19.90;15.60;;;;;;;19.49;74.99;99523.47;213590;1277;143320;-66
2022/08/18 02:10:34;;;;;;;16.50;14.80;;;;;;;19.55;75.30;99527.13;213976;1277;142653;-67
2022/08/18 02:15:37;;;;;;;15.90;14.30;;;;;;;19.54;75.11;99525.88;213838;1277;140642;-66
2022/08/18 02:20:46;;;;;;;19.20;16.30;;;;;;;19.33;74.94;99518.01;214199;1277;140893;-66
2022/08/18 02:25:51;;;;;;;15.60;13.80;;;;;;;19.22;75.34;99510.02;214423;1276;141195;-65
2022/08/18 02:30:55;;;;;;;16.00;14.50;;;;;;;19.18;75.51;99507.64;212950;1277;140926;-66
2022/08/18 02:36:01;;;;;;;18.00;16.10;;;;;;;19.23;75.68;99503.08;214054;1279;141728;-66
2022/08/18 02:41:09;;;;;;;18.70;16.00;;;;;;;19.14;75.38;99499.83;214425;1277;141873;-66
2022/08/18 02:46:14;;;;;;;15.50;14.00;;;;;;;19.14;75.86;99496.30;214038;1279;140921;-65
2022/08/18 02:51:20;;;;;;;24.20;14.80;;;;;;;19.12;75.68;99498.33;214796;1278;141209;-65
2022/08/18 02:56:30;;;;;;;17.70;15.40;;;;;;;19.07;75.65;99499.77;214967;1279;142420;-66
2022/08/18 03:01:47;;;;;;;17.30;15.60;;;;;;;18.99;75.56;99500.11;215247;1278;141353;-66
2022/08/18 03:06:52;;;;;;;18.30;15.00;;;;;;;19.04;76.02;99504.73;215191;1278;141508;-66
2022/08/18 03:11:57;;;;;;;21.60;17.40;;;;;;;19.12;76.18;99503.52;212907;1278;141539;-67
2022/08/18 03:17:04;;;;;;;19.80;16.80;;;;;;;19.15;76.04;99502.30;215881;1277;139813;-66
2022/08/18 03:22:09;;;;;;;16.00;14.50;;;;;;;19.07;75.62;99503.34;213836;1275;162222;-67
2022/08/18 03:27:34;;;;;;;15.10;13.60;;;;;;;18.94;75.79;99501.35;213907;1277;141636;-66
2022/08/18 03:32:39;;;;;;;15.50;14.00;;;;;;;18.79;75.65;99501.52;214692;1277;141877;-67
2022/08/18 03:37:48;;;;;;;15.20;13.90;;;;;;;18.75;75.91;99506.39;214428;1277;141048;-66
2022/08/18 03:42:54;;;;;;;16.40;14.50;;;;;;;18.76;76.06;99508.54;214330;1277;145048;-67
2022/08/18 03:47:59;;;;;;;18.30;16.20;;;;;;;18.80;76.32;99511.13;213151;1277;211590;-66
2022/08/18 03:53:04;;;;;;;16.70;15.00;;;;;;;18.82;76.20;99516.30;213611;1277;140257;-66
2022/08/18 03:58:13;;;;;;;17.50;15.90;;;;;;;18.72;76.39;99526.92;213278;1277;141815;-66
2022/08/18 04:03:18;;;;;;;16.00;14.50;;;;;;;18.70;76.59;99531.85;212822;1277;141413;-67
2022/08/18 04:08:22;;;;;;;15.10;13.70;;;;;;;18.73;76.90;99536.29;213313;1277;143424;-66
2022/08/18 04:13:27;;;;;;;19.10;17.10;;;;;;;18.90;77.00;99537.50;213894;1277;142617;-67
2022/08/18 04:18:32;;;;;;;17.30;15.60;;;;;;;18.89;76.89;99535.20;213404;1277;142989;-66
2022/08/18 04:23:37;;;;;;;17.50;15.70;;;;;;;18.93;77.23;99526.27;213266;1277;142636;-67
2022/08/18 04:28:47;;;;;;;16.10;14.50;;;;;;;19.12;77.48;99533.04;214592;1277;140798;-65
2022/08/18 04:33:53;;;;;;;17.80;15.90;;;;;;;19.35;77.67;99534.80;213354;1277;142592;-67
2022/08/18 04:38:58;;;;;;;18.90;17.10;;;;;;;19.58;77.59;99538.67;213616;1277;162827;-66
2022/08/18 04:44:07;;;;;;;24.20;18.90;;;;;;;19.77;77.65;99537.25;214668;1277;141325;-66
2022/08/18 04:49:12;;;;;;;18.90;17.20;;;;;;;19.89;77.59;99542.64;214444;1277;142256;-66
2022/08/18 04:54:17;;;;;;;19.70;17.70;;;;;;;20.11;77.63;99547.83;214029;1277;141320;-66
2022/08/18 04:59:20;;;;;;;21.40;18.70;;;;;;;20.33;77.70;99547.79;214201;1277;142072;-66
2022/08/18 05:04:27;;;;;;;20.50;18.70;;;;;;;20.60;77.94;99552.75;215053;1277;140598;-66
2022/08/18 05:09:32;;;;;;;18.80;17.00;;;;;;;20.90;77.98;99554.77;215682;1277;141246;-66
2022/08/18 05:14:44;;;;;;;20.70;17.80;;;;;;;21.23;77.97;99550.22;214678;1277;140917;-65
2022/08/18 05:19:49;;;;;;;22.70;20.70;;;;;;;21.56;77.90;99550.58;215532;1277;141053;-66
2022/08/18 05:24:53;;;;;;;24.80;21.50;;;;;;;21.91;77.92;99554.09;215317;1277;140734;-66
2022/08/18 05:29:57;;;;;;;24.60;20.50;;;;;;;22.26;78.02;99556.31;214349;1277;141826;-65
2022/08/18 05:35:06;;;;;;;19.40;17.40;;;;;;;22.66;77.19;99562.05;214121;1277;142070;-66
2022/08/18 05:40:13;;;;;;;21.40;19.30;;;;;;;23.58;76.53;99558.73;213302;1277;142125;-66
2022/08/18 05:45:19;;;;;;;20.00;18.10;;;;;;;24.19;75.51;99556.32;214088;1277;142207;-67
2022/08/18 05:50:23;;;;;;;;;;;;;;;24.21;74.50;99557.16;212822;1279;142104;-67
2022/08/18 06:01:29;;;;;;;18.50;16.70;;;;;;;24.50;73.63;99568.94;213574;1277;141290;-66
2022/08/18 06:06:35;;;;;;;22.10;15.80;;;;;;;24.72;73.46;99572.47;212915;1278;142522;-66
2022/08/18 06:11:39;;;;;;;21.30;17.70;;;;;;;24.86;72.13;99572.67;213052;1278;165077;-64
2022/08/18 06:16:59;;;;;;;19.10;17.20;;;;;;;24.84;72.04;99571.76;213531;1277;141532;-65
2022/08/18 06:22:27;;;;;;;17.70;15.10;;;;;;;24.77;71.58;99573.94;214123;1277;141684;-65
2022/08/18 06:27:42;;;;;;;25.20;16.90;;;;;;;24.80;71.48;99576.51;213061;1277;141806;-65
2022/08/18 06:33:02;;;;;;;19.20;16.40;;;;;;;24.94;71.50;99577.89;214477;1278;140989;-67
2022/08/18 06:44:02;;;;;;;23.50;16.70;;;;;;;25.58;71.49;99591.19;214670;1277;142172;-66
2022/08/18 06:49:16;;;;;;;17.90;16.20;;;;;;;26.02;70.67;99584.39;215211;1277;142088;-66
2022/08/18 06:54:19;;;;;;;18.80;15.20;;;;;;;26.24;69.63;99582.92;215464;1277;141009;-66
2022/08/18 06:59:28;;;;;;;18.20;16.10;;;;;;;26.67;69.07;99586.67;215695;1277;140849;-67
2022/08/18 07:04:43;;;;;;;16.90;15.30;;;;;;;27.02;68.20;99597.63;214778;1278;141008;-65
2022/08/18 07:09:47;;;;;;;18.20;14.50;;;;;;;27.76;67.77;99607.58;215240;1277;141620;-65
2022/08/18 07:14:55;;;;;;;15.30;13.90;;;;;;;28.97;66.51;99611.84;214883;1277;143835;-65
2022/08/18 07:20:16;;;;;;;16.10;14.50;;;;;;;29.67;64.45;99616.99;214363;1277;142113;-65
2022/08/18 07:25:32;;;;;;;14.80;12.60;;;;;;;29.77;62.38;99611.76;213485;1277;141940;-65
2022/08/18 07:30:37;;;;;;;13.00;11.90;;;;;;;29.75;61.60;99616.66;214052;1277;141557;-65
2022/08/18 07:36:04;;;;;;;12.20;11.00;;;;;;;29.76;60.57;99613.70;214016;1277;141572;-65
2022/08/18 07:41:20;;;;;;;13.00;11.90;;;;;;;30.09;60.78;99609.57;213665;1278;141764;-65
2022/08/18 07:46:57;;;;;;;15.60;12.40;;;;;;;30.61;60.19;99600.08;213691;1277;141692;-65
2022/08/18 07:52:16;;;;;;;14.60;13.20;;;;;;;31.19;59.51;99606.73;213511;1277;141475;-65
2022/08/18 07:57:58;;;;;;;15.10;12.80;;;;;;;31.56;58.06;99606.91;212759;1277;141817;-66
2022/08/18 08:03:42;;;;;;;12.50;11.30;;;;;;;31.38;56.56;99602.48;213528;1278;140786;-65
2022/08/18 08:09:01;;;;;;;12.40;11.40;;;;;;;31.17;56.15;99602.06;213010;1277;142792;-66
2022/08/18 08:14:31;;;;;;;15.70;12.40;;;;;;;30.92;55.90;99601.83;212678;1278;140434;-65
2022/08/18 08:19:52;;;;;;;13.00;11.70;;;;;;;31.05;55.62;99597.05;213414;1277;140012;-65
2022/08/18 08:25:24;;;;;;;13.40;12.20;;;;;;;31.20;55.49;99593.45;213460;1277;140584;-66
2022/08/18 08:31:31;;;;;;;11.80;10.70;;;;;;;31.31;54.54;99594.77;214229;1277;140079;-65
2022/08/18 08:36:43;;;;;;;13.30;12.00;;;;;;;31.39;54.15;99602.02;214560;1277;140537;-66
2022/08/18 08:41:55;;;;;;;12.60;11.30;;;;;;;31.46;53.89;99602.18;215381;1277;140139;-65
2022/08/18 08:47:47;;;;;;;11.50;10.40;;;;;;;31.74;54.48;99600.72;215420;1277;141552;-67
2022/08/18 08:53:07;;;;;;;16.30;11.70;;;;;;;31.80;52.70;99605.66;214354;1277;140850;-66
2022/08/18 08:58:32;;;;;;;12.50;11.10;;;;;;;31.70;52.66;99609.27;214941;1277;141915;-67
2022/08/18 09:03:52;;;;;;;13.20;12.00;;;;;;;31.84;52.36;99608.54;215162;1278;140429;-67
2022/08/18 09:09:27;;;;;;;14.60;11.90;;;;;;;31.79;51.63;99600.69;213451;1278;140879;-66
2022/08/18 09:15:00;;;;;;;13.40;10.20;;;;;;;31.69;51.92;99607.46;215371;1278;140508;-66
2022/08/18 09:20:49;;;;;;;15.20;11.80;;;;;;;31.78;51.90;99602.66;215482;1277;142273;-67
2022/08/18 09:25:59;;;;;;;11.10;10.10;;;;;;;31.86;51.10;99604.05;214510;1278;141505;-66
2022/08/18 09:31:09;;;;;;;13.70;11.10;;;;;;;31.97;51.22;99618.97;214437;1277;140632;-67
2022/08/18 09:36:16;;;;;;;11.60;10.50;;;;;;;32.07;51.15;99623.32;213950;1277;140940;-66
2022/08/18 09:41:32;;;;;;;19.10;12.10;;;;;;;32.23;50.86;99623.69;214345;1277;140553;-66
2022/08/18 09:46:46;;;;;;;17.90;12.70;;;;;;;32.33;50.35;99622.44;213946;1277;141913;-66
2022/08/18 09:51:55;;;;;;;12.70;11.10;;;;;;;32.40;49.57;99614.60;214054;1277;141759;-68
2022/08/18 09:57:03;;;;;;;12.00;10.00;;;;;;;32.28;48.86;99607.96;212935;1277;141698;-66
2022/08/18 10:02:31;;;;;;;11.20;10.20;;;;;;;32.32;49.10;99604.06;212912;1277;143318;-66
2022/08/18 10:07:41;;;;;;;11.50;10.40;;;;;;;32.57;48.76;99595.85;213757;1277;140902;-66
2022/08/18 10:13:23;;;;;;;11.90;9.70;;;;;;;32.87;48.10;99589.64;212708;1277;141414;-68
2022/08/18 10:18:44;;;;;;;10.70;9.20;;;;;;;32.75;47.73;99587.76;213486;1277;142331;-67
2022/08/18 10:23:53;;;;;;;11.30;10.20;;;;;;;32.25;47.82;99584.99;212933;1277;140851;-67
2022/08/18 10:29:28;;;;;;;12.90;10.50;;;;;;;32.04;47.49;99587.84;214976;1278;141706;-67
2022/08/18 10:34:42;;;;;;;12.60;11.10;;;;;;;32.31;48.15;99596.25;212580;1277;140988;-66
2022/08/18 10:40:15;;;;;;;11.20;10.10;;;;;;;32.57;47.66;99595.38;212271;1278;142113;-67
2022/08/18 10:45:50;;;;;;;10.90;9.60;;;;;;;32.73;47.66;99587.27;213465;1278;142276;-66
2022/08/18 10:51:43;;;;;;;11.90;10.70;;;;;;;32.89;47.24;99587.91;212501;1278;141299;-66
2022/08/18 10:57:20;;;;;;;11.80;10.70;;;;;;;32.35;46.78;99583.67;213109;1277;141027;-66
2022/08/18 11:02:29;;;;;;;11.10;10.10;;;;;;;32.50;46.47;99586.42;215305;1278;143251;-66
2022/08/18 11:07:34;;;;;;;15.30;11.10;;;;;;;32.52;46.32;99581.23;215470;1278;140864;-67
2022/08/18 11:12:54;;;;;;;12.30;10.30;;;;;;;32.74;46.46;99576.48;215130;1277;141210;-65
2022/08/18 11:18:27;;;;;;;11.00;9.90;;;;;;;33.03;46.10;99573.30;215174;1277;141462;-67
2022/08/18 11:23:32;;;;;;;12.00;9.80;;;;;;;33.15;45.60;99566.85;212785;1277;141267;-66
2022/08/18 11:28:36;;;;;;;12.00;10.30;;;;;;;32.98;45.00;99554.41;214084;1278;141021;-67
2022/08/18 11:33:48;;;;;;;12.70;9.00;;;;;;;32.96;45.17;99549.29;213004;1278;140944;-66
2022/08/18 11:38:55;;;;;;;10.40;9.40;;;;;;;33.26;45.97;99547.58;212672;1278;163936;-66
2022/08/18 11:44:01;;;;;;;12.70;10.40;;;;;;;33.32;45.06;99549.23;213771;1278;141111;-66
2022/08/18 11:49:17;;;;;;;11.60;10.50;;;;;;;33.06;44.41;99548.52;213387;1277;150980;-65
2022/08/18 11:54:43;;;;;;;9.90;8.90;;;;;;;32.92;44.50;99546.99;213463;1278;141006;-66
2022/08/18 11:59:57;;;;;;;10.10;9.20;;;;;;;32.84;44.72;99532.36;212550;1278;141435;-66
2022/08/18 12:05:20;;;;;;;13.00;10.50;;;;;;;32.29;44.21;99530.33;212617;1275;141174;-65
2022/08/18 12:10:27;;;;;;;14.40;10.40;;;;;;;31.88;44.88;99525.17;212576;1277;142589;-66
2022/08/18 12:15:33;;;;;;;11.80;10.50;;;;;;;31.77;45.49;99517.94;213566;1278;142541;-67
2022/08/18 12:20:49;;;;;;;12.20;10.50;;;;;;;31.89;45.21;99514.62;212677;1279;140946;-65
2022/08/18 12:26:13;;;;;;;14.10;11.60;;;;;;;31.89;45.25;99506.89;214824;1278;142341;-66
2022/08/18 12:31:38;;;;;;;15.40;12.10;;;;;;;32.08;45.09;99492.21;214816;1277;141526;-67
2022/08/18 12:37:02;;;;;;;12.10;10.80;;;;;;;32.31;44.28;99482.37;213094;1278;140244;-68
2022/08/18 12:42:16;;;;;;;11.60;10.60;;;;;;;32.43;43.83;99475.33;213973;1279;140506;-67
2022/08/18 12:47:26;;;;;;;12.70;11.30;;;;;;;32.41;43.76;99473.27;215484;1278;232826;-66
2022/08/18 12:52:33;;;;;;;18.70;11.00;;;;;;;32.45;43.89;99471.46;214993;1278;140438;-66
2022/08/18 12:57:37;;;;;;;11.80;10.50;;;;;;;32.53;43.84;99466.54;214707;1277;140600;-66
2022/08/18 13:03:02;;;;;;;16.50;11.50;;;;;;;32.54;43.85;99456.77;215279;1277;141955;-68
2022/08/18 13:08:19;;;;;;;10.50;9.20;;;;;;;32.61;43.74;99457.19;215683;1278;141710;-68
2022/08/18 13:13:33;;;;;;;12.10;9.70;;;;;;;32.60;43.17;99456.16;215195;1277;141023;-66
2022/08/18 13:18:42;;;;;;;10.70;9.70;;;;;;;32.36;43.38;99467.02;215361;1277;141345;-67
2022/08/18 13:23:48;;;;;;;14.10;10.70;;;;;;;32.31;43.62;99468.50;214230;1278;140099;-65
2022/08/18 13:28:56;;;;;;;10.80;10.00;;;;;;;32.06;43.71;99474.95;212856;1278;143749;-64
2022/08/18 13:34:00;;;;;;;13.50;10.70;;;;;;;31.58;44.08;99473.60;215326;1278;141110;-64
2022/08/18 13:39:06;;;;;;;17.00;11.80;;;;;;;31.31;45.42;99476.41;212731;1279;141803;-67
2022/08/18 13:44:14;;;;;;;11.70;10.50;;;;;;;31.02;45.67;99480.84;213241;1277;140797;-66
2022/08/18 13:49:24;;;;;;;11.90;9.90;;;;;;;30.71;45.62;99475.63;213149;1277;1749207;-66
2022/08/18 13:54:33;;;;;;;11.50;10.50;;;;;;;30.93;45.38;99466.57;212816;1278;140928;-68
2022/08/18 13:59:37;;;;;;;15.00;10.50;;;;;;;31.18;45.17;99472.44;214050;1277;141511;-66
2022/08/18 14:04:50;;;;;;;10.60;9.80;;;;;;;31.32;44.25;99472.95;212829;1277;142850;-65
2022/08/18 14:09:54;;;;;;;14.30;9.10;;;;;;;31.33;43.84;99481.63;212897;1277;141107;-65
2022/08/18 14:14:58;;;;;;;10.60;9.80;;;;;;;31.38;43.93;99478.68;213393;1277;139926;-65
2022/08/18 14:30:53;;;;;;;10.10;9.30;;;;;;;31.25;43.62;99487.78;212950;1278;141944;-67
2022/08/18 14:36:00;;;;;;;11.00;9.90;;;;;;;31.20;44.25;99485.36;214111;1279;142843;-65
2022/08/18 14:41:13;;;;;;;11.20;10.10;;;;;;;31.36;44.49;99483.86;213747;1278;141169;-66
2022/08/18 14:46:19;;;;;;;9.80;8.80;;;;;;;31.48;44.57;99483.59;214477;1277;141267;-67
2022/08/18 14:51:31;;;;;;;11.90;9.60;;;;;;;31.40;44.02;99476.27;215471;1277;140512;-66
2022/08/18 14:56:37;;;;;;;11.70;8.40;;;;;;;31.27;43.96;99482.52;213898;1277;141938;-66
2022/08/18 15:01:42;;;;;;;16.00;9.30;;;;;;;31.11;43.67;99486.44;215164;1279;140552;-68
2022/08/18 15:06:50;;;;;;;8.90;8.00;;;;;;;31.05;44.19;99486.06;215471;1278;140292;-67
2022/08/18 15:11:59;;;;;;;10.10;9.10;;;;;;;31.11;44.24;99476.23;214921;1277;139901;-65
2022/08/18 15:17:07;;;;;;;9.10;8.30;;;;;;;31.03;43.82;99465.50;215505;1277;139778;-66
2022/08/18 15:27:38;;;;;;;11.50;8.70;;;;;;;30.88;44.43;99444.67;214547;1278;141004;-65
2022/08/18 15:32:48;;;;;;;9.00;8.20;;;;;;;30.91;44.42;99430.46;214171;1277;140551;-65
2022/08/18 15:37:53;;;;;;;10.20;9.20;;;;;;;30.87;44.31;99418.88;214478;1279;140007;-66
2022/08/18 15:43:00;;;;;;;10.00;8.90;;;;;;;30.82;44.39;99413.64;213976;1277;140316;-64
2022/08/18 15:48:04;;;;;;;10.70;9.00;;;;;;;30.69;44.60;99412.94;214200;1278;140650;-65
2022/08/18 15:53:09;;;;;;;10.00;9.00;;;;;;;30.48;44.80;99415.44;213126;1277;140841;-66
2022/08/18 15:58:13;;;;;;;17.70;9.30;;;;;;;30.38;44.63;99417.92;213524;1278;140233;-66
2022/08/18 16:03:24;;;;;;;11.60;9.30;;;;;;;30.37;45.07;99427.88;213933;1277;139843;-66
2022/08/18 16:08:30;;;;;;;9.20;8.50;;;;;;;30.34;45.41;99433.57;213574;1278;141753;-65
2022/08/18 16:13:34;;;;;;;8.10;7.40;;;;;;;30.14;45.10;99425.55;212992;1277;140205;-65
2022/08/18 16:18:38;;;;;;;9.20;8.30;;;;;;;29.97;45.23;99424.77;212817;1277;153440;-65
2022/08/18 16:23:44;;;;;;;10.00;8.80;;;;;;;29.83;46.16;99416.93;212996;1277;139789;-65
2022/08/18 16:28:51;;;;;;;9.40;8.60;;;;;;;29.61;46.53;99414.48;214102;1277;139654;-67
2022/08/18 16:33:56;;;;;;;10.00;9.20;;;;;;;29.47;47.06;99422.60;213571;1277;140752;-65
2022/08/18 16:39:00;;;;;;;11.10;10.20;;;;;;;29.37;48.65;99420.54;213190;1277;141204;-65
2022/08/18 16:44:03;;;;;;;11.00;10.00;;;;;;;29.27;49.01;99424.99;213289;1277;140573;-65
2022/08/18 16:49:06;;;;;;;14.90;9.60;;;;;;;29.09;49.84;99438.80;214308;1277;140972;-65
2022/08/18 16:54:13;;;;;;;11.10;9.70;;;;;;;28.90;50.20;99436.88;214464;1277;141366;-66
2022/08/18 17:04:42;;;;;;;13.00;9.80;;;;;;;28.50;51.42;99453.64;213585;1279;140840;-65
2022/08/18 17:09:45;;;;;;;11.00;9.90;;;;;;;28.28;51.90;99445.36;215370;1277;140933;-66
2022/08/18 17:14:49;;;;;;;12.80;10.70;;;;;;;28.08;52.65;99434.35;215327;1277;141505;-64
2022/08/18 17:19:54;;;;;;;16.80;9.70;;;;;;;27.89;53.30;99417.48;214138;1277;141223;-64
2022/08/18 17:25:02;;;;;;;13.30;9.90;;;;;;;27.67;53.86;99412.93;214014;1277;141614;-65
2022/08/18 17:30:14;;;;;;;12.40;11.20;;;;;;;27.44;54.36;99401.65;214444;1277;140893;-65
2022/08/18 17:35:29;;;;;;;13.00;11.00;;;;;;;27.21;55.27;99390.23;213456;1277;143139;-68
2022/08/18 17:40:45;;;;;;;24.30;11.20;;;;;;;26.96;55.76;99382.23;213102;1277;153030;-70
2022/08/18 17:46:00;;;;;;;14.90;12.30;;;;;;;26.71;56.27;99387.81;213342;1277;141906;-65
2022/08/18 17:56:51;;;;;;;12.90;11.00;;;;;;;26.26;56.96;99378.61;213673;1277;140456;-66
2022/08/18 18:02:24;;;;;;;11.70;10.70;;;;;;;26.06;57.33;99375.13;213131;1277;141214;-66
2022/08/18 18:07:50;;;;;;;13.30;11.70;;;;;;;25.86;57.53;99379.08;213301;1278;140822;-66
2022/08/18 18:13:13;;;;;;;21.40;12.10;;;;;;;25.65;57.73;99396.38;212791;1277;140223;-66
2022/08/18 18:18:40;;;;;;;16.00;11.70;;;;;;;25.45;58.23;99407.80;213545;1277;142023;-66
2022/08/18 18:23:51;;;;;;;15.90;13.10;;;;;;;25.22;58.69;99420.48;212882;1277;140973;-67
2022/08/18 18:29:28;;;;;;;12.90;11.60;;;;;;;25.06;59.52;99429.21;213726;1277;141353;-68
2022/08/18 18:34:44;;;;;;;13.20;11.70;;;;;;;24.88;59.94;99439.55;215192;1277;140970;-69
2022/08/18 18:40:07;;;;;;;19.00;11.10;;;;;;;24.70;60.45;99457.95;214951;1277;140888;-65
2022/08/18 18:45:29;;;;;;;12.30;10.70;;;;;;;24.53;60.89;99473.27;212676;1277;140129;-66
2022/08/18 18:50:53;;;;;;;17.00;12.00;;;;;;;24.27;61.27;99472.93;214739;1277;140547;-69
2022/08/18 18:56:17;;;;;;;14.70;13.20;;;;;;;23.98;61.62;99473.50;214946;1277;140569;-65
2022/08/18 19:01:38;;;;;;;16.80;12.90;;;;;;;23.69;62.23;99477.56;215726;1277;140081;-65
2022/08/18 19:06:53;;;;;;;12.10;10.80;;;;;;;23.64;62.78;99482.81;215400;1277;140840;-66
2022/08/18 19:12:17;;;;;;;13.20;11.70;;;;;;;23.67;62.99;99481.90;215366;1277;142424;-66
2022/08/18 19:17:42;;;;;;;20.90;13.20;;;;;;;23.64;63.23;99482.17;215342;1277;140303;-65
2022/08/18 19:22:58;;;;;;;17.00;15.00;;;;;;;23.52;63.66;99479.83;215620;1277;141093;-66
2022/08/18 19:28:30;;;;;;;17.70;13.60;;;;;;;23.40;63.93;99476.27;213300;1279;143082;-66
2022/08/18 19:34:08;;;;;;;18.10;15.30;;;;;;;23.12;64.17;99476.80;213531;1279;141971;-67
2022/08/18 19:39:20;;;;;;;17.80;14.40;;;;;;;22.97;65.00;99471.42;213326;1277;143883;-65
2022/08/18 19:44:45;;;;;;;16.80;14.70;;;;;;;22.96;65.33;99467.86;213586;1278;141479;-65
2022/08/18 19:50:20;;;;;;;21.70;14.40;;;;;;;22.92;65.43;99466.00;213611;1277;140948;-67
2022/08/18 19:55:34;;;;;;;19.80;15.20;;;;;;;22.88;65.54;99462.19;213571;1277;141516;-66
2022/08/18 20:00:52;;;;;;;26.40;14.80;;;;;;;22.81;65.60;99461.42;214042;1278;141617;-65
2022/08/18 20:06:07;;;;;;;13.80;12.50;;;;;;;22.70;66.04;99459.38;213199;1277;141164;-66
2022/08/18 20:11:37;;;;;;;16.30;13.20;;;;;;;22.63;66.27;99462.17;212771;1277;143081;-66
2022/08/18 20:17:30;;;;;;;20.50;14.90;;;;;;;22.58;66.32;99457.20;213316;1277;140808;-66
2022/08/18 20:22:38;;;;;;;28.10;15.30;;;;;;;22.47;66.59;99448.09;213815;1279;141371;-65
2022/08/18 20:27:48;;;;;;;14.80;13.40;;;;;;;22.35;66.64;99434.90;212862;1277;140972;-66
2022/08/18 20:33:27;;;;;;;21.20;14.70;;;;;;;22.25;66.66;99421.20;213401;1277;141802;-66
2022/08/18 20:38:33;;;;;;;18.10;13.10;;;;;;;22.19;67.03;99411.39;212970;1277;142604;-66
2022/08/18 20:43:38;;;;;;;14.00;12.50;;;;;;;22.13;67.42;99399.83;213456;1277;140308;-67
2022/08/18 20:49:06;;;;;;;13.50;12.20;;;;;;;22.09;67.65;99385.95;214059;1277;140930;-68
2022/08/18 20:54:46;;;;;;;15.30;13.10;;;;;;;22.01;67.54;99378.98;212731;1277;141297;-66
2022/08/18 21:00:14;;;;;;;14.10;12.80;;;;;;;21.93;67.79;99385.75;215329;1277;140776;-67
2022/08/18 21:05:37;;;;;;;16.50;13.60;;;;;;;21.88;67.96;99387.23;214934;1277;141086;-67
2022/08/18 21:11:02;;;;;;;18.10;12.70;;;;;;;21.75;67.93;99384.30;215631;1277;141356;-66
2022/08/18 21:16:26;;;;;;;19.90;12.00;;;;;;;21.69;68.27;99380.55;214930;1277;142760;-66
2022/08/18 21:21:50;;;;;;;15.20;13.60;;;;;;;21.70;68.38;99384.62;215295;1277;140689;-66
2022/08/18 21:26:59;;;;;;;14.10;12.40;;;;;;;21.69;68.50;99387.81;215381;1276;140617;-66
2022/08/18 21:32:16;;;;;;;13.50;11.40;;;;;;;21.57;68.52;99386.70;215429;1277;141682;-66
2022/08/18 21:37:21;;;;;;;15.30;12.70;;;;;;;21.51;68.65;99385.95;213678;1277;141055;-67
2022/08/18 21:42:41;;;;;;;19.00;12.30;;;;;;;21.42;68.71;99386.79;214042;1277;140055;-67
2022/08/18 21:47:52;;;;;;;16.60;12.70;;;;;;;21.27;69.02;99396.76;213894;1277;139672;-67
2022/08/18 21:53:01;;;;;;;17.60;11.70;;;;;;;21.24;69.29;99405.27;214352;1277;140856;-66
2022/08/18 21:58:17;;;;;;;15.10;12.70;;;;;;;21.23;69.53;99410.86;213792;1277;140496;-69
2022/08/18 22:03:51;;;;;;;16.60;13.80;;;;;;;21.22;69.53;99422.81;213839;1278;141622;-67
2022/08/18 22:13:57;;;;;;;12.50;11.00;;;;;;;21.18;69.66;99422.02;213987;1279;140800;-69
2022/08/18 22:14:41;;;;;;;12.50;11.20;;;;;;;21.13;69.73;99421.38;213717;1278;141548;-68
2022/08/18 22:20:37;;;;;;;13.20;11.30;;;;;;;21.09;69.70;99423.95;213119;1278;141906;-66
2022/08/18 22:25:42;;;;;;;13.50;11.90;;;;;;;21.06;69.93;99420.95;212783;1278;142147;-66
2022/08/18 22:30:46;;;;;;;12.30;11.10;;;;;;;20.99;69.98;99414.40;214133;1278;140824;-65
2022/08/18 22:35:55;;;;;;;12.20;11.10;;;;;;;20.85;70.00;99416.01;212792;1279;141254;-66
2022/08/18 22:41:00;;;;;;;12.20;10.90;;;;;;;20.72;70.09;99409.73;214378;1278;142593;-67
2022/08/18 22:46:07;;;;;;;11.80;10.80;;;;;;;20.63;70.22;99406.50;212761;1278;141657;-67
2022/08/18 22:51:12;;;;;;;20.00;10.90;;;;;;;20.56;70.38;99405.58;213971;1278;140926;-66
2022/08/18 22:56:19;;;;;;;14.10;10.20;;;;;;;20.55;70.76;99406.35;213843;1278;142054;-66
2022/08/18 23:01:38;;;;;;;11.00;10.00;;;;;;;20.56;70.78;99405.31;214253;1277;142227;-68
2022/08/18 23:06:50;;;;;;;10.60;9.60;;;;;;;20.57;70.86;99405.82;215512;1277;141055;-66
2022/08/18 23:11:58;;;;;;;11.70;10.60;;;;;;;20.55;70.92;99403.00;215724;1277;140910;-66
2022/08/18 23:17:04;;;;;;;13.10;10.90;;;;;;;20.55;71.07;99405.61;215616;1277;140968;-67
2022/08/18 23:22:09;;;;;;;13.10;10.00;;;;;;;20.58;71.21;99406.79;214889;1277;142138;-66
2022/08/18 23:27:14;;;;;;;11.50;10.10;;;;;;;20.63;71.28;99405.27;215189;1277;141736;-67
2022/08/18 23:32:22;;;;;;;12.90;10.20;;;;;;;20.71;71.38;99406.63;212912;1277;141107;-67
2022/08/18 23:37:34;;;;;;;10.40;9.50;;;;;;;20.76;71.51;99398.91;213853;1277;140896;-66
2022/08/18 23:42:38;;;;;;;11.60;9.00;;;;;;;20.78;71.44;99400.71;214618;1277;141751;-66
2022/08/18 23:47:44;;;;;;;11.00;9.90;;;;;;;20.78;71.38;99394.24;212922;1279;245661;-65
2022/08/18 23:52:58;;;;;;;18.30;11.20;;;;;;;20.80;71.51;99382.60;214055;1275;140682;-67
2022/08/18 23:58:03;;;;;;;12.60;11.40;;;;;;;20.83;71.63;99375.64;212684;1277;141285;-67
